Time;durP1;ratioP1;P1;durP2;ratioP2;P2;SDS_P1;SDS_P2;PMS_P1;PMS_P2;Temp;Humidity;BMP_temperature;BMP_pressure;BME280_temperature;BME280_humidity;BME280_pressure;Samples;Min_cycle;Max_cycle;Signal;HPM_P1;HPM_P2
2023/07/25 00:02:31;;;;;;;5.70;3.40;;;;;21.50;96014.00;;;;5048532;28;20229;-71
2023/07/25 00:05:21;;;;;;;8.13;4.10;;;;;21.70;96041.00;;;;5048868;28;20215;-71
2023/07/25 00:08:10;;;;;;;6.63;3.60;;;;;21.80;96030.00;;;;5057567;28;20220;-71
2023/07/25 00:10:59;;;;;;;4.63;2.97;;;;;21.80;96009.00;;;;5040722;28;20204;-71
2023/07/25 00:13:49;;;;;;;6.10;3.47;;;;;21.90;96004.00;;;;5053059;28;20596;-71
2023/07/25 00:16:38;;;;;;;6.30;3.50;;;;;21.60;95992.00;;;;5055155;28;20660;-73
2023/07/25 00:19:27;;;;;;;4.43;2.70;;;;;21.60;95992.00;;;;5047563;28;20193;-72
2023/07/25 00:22:17;;;;;;;8.93;3.17;;;;;21.80;96002.00;;;;5049372;28;20220;-72
2023/07/25 00:25:08;;;;;;;9.03;3.07;;;;;21.90;95976.00;;;;5044128;28;20668;-72
2023/07/25 00:27:57;;;;;;;5.50;2.80;;;;;21.90;95944.00;;;;5048841;28;20224;-72
2023/07/25 00:30:46;;;;;;;6.37;2.93;;;;;21.90;95920.00;;;;5034548;28;20201;-73
2023/07/25 00:33:35;;;;;;;6.77;3.03;;;;;21.90;95922.00;;;;5037543;28;20271;-72
2023/07/25 00:36:24;;;;;;;4.73;2.80;;;;;21.90;95922.00;;;;5033135;28;20198;-72
2023/07/25 00:39:15;;;;;;;2.77;2.40;;;;;21.90;95918.00;;;;5030398;28;20205;-72
2023/07/25 00:42:04;;;;;;;5.37;2.97;;;;;21.80;95928.00;;;;5036472;28;20225;-72
2023/07/25 00:44:53;;;;;;;4.77;2.73;;;;;21.90;95928.00;;;;5031376;28;20583;-72
2023/07/25 00:47:42;;;;;;;8.07;2.60;;;;;21.90;95907.00;;;;5036815;28;20219;-72
2023/07/25 00:50:32;;;;;;;6.83;4.60;;;;;21.90;95844.00;;;;5044182;28;20204;-72
2023/07/25 00:53:21;;;;;;;5.23;3.23;;;;;21.90;95767.00;;;;5032752;28;20225;-71
2023/07/25 00:56:12;;;;;;;6.00;2.93;;;;;21.80;95728.00;;;;5042997;28;20581;-72
2023/07/25 00:59:02;;;;;;;6.57;3.20;;;;;21.80;95735.00;;;;5037555;28;20198;-73
2023/07/25 01:01:51;;;;;;;7.43;3.43;;;;;21.90;95749.00;;;;5042611;28;20220;-73
2023/07/25 01:04:41;;;;;;;10.70;3.87;;;;;21.80;95755.00;;;;5042934;28;20580;-73
2023/07/25 01:07:31;;;;;;;9.90;3.00;;;;;21.50;95769.00;;;;5034284;28;20209;-72
2023/07/25 01:10:20;;;;;;;4.80;2.77;;;;;21.10;95775.00;;;;5032033;28;20208;-68
2023/07/25 01:13:10;;;;;;;7.67;3.77;;;;;20.90;95788.00;;;;5042528;28;20224;-74
2023/07/25 01:16:00;;;;;;;7.93;2.63;;;;;21.10;95772.00;;;;5044889;28;20212;-72
2023/07/25 01:18:49;;;;;;;5.33;2.70;;;;;21.60;95776.00;;;;5038231;28;20206;-73
2023/07/25 01:21:38;;;;;;;5.57;3.43;;;;;21.40;95805.00;;;;5035965;28;20651;-73
2023/07/25 01:24:28;;;;;;;5.13;2.70;;;;;21.50;95830.00;;;;5036690;28;20204;-73
2023/07/25 01:27:18;;;;;;;6.53;3.07;;;;;21.10;95832.00;;;;5037520;28;20200;-73
2023/07/25 01:30:08;;;;;;;4.30;3.00;;;;;21.50;95850.00;;;;5042302;28;20245;-73
2023/07/25 01:32:57;;;;;;;9.17;3.37;;;;;21.50;95853.00;;;;5039995;28;20220;-74
2023/07/25 01:35:46;;;;;;;7.33;2.83;;;;;21.50;95853.00;;;;5038955;28;20227;-74
2023/07/25 01:38:35;;;;;;;5.13;3.30;;;;;21.50;95849.00;;;;5038470;28;20200;-73
2023/07/25 01:41:26;;;;;;;5.53;3.00;;;;;21.40;95847.00;;;;5045782;28;20209;-73
2023/07/25 01:44:15;;;;;;;6.37;3.03;;;;;21.20;95846.00;;;;5044499;28;20848;-73
2023/07/25 01:47:04;;;;;;;8.00;3.00;;;;;21.20;95864.00;;;;5043510;28;20588;-73
2023/07/25 01:49:53;;;;;;;4.97;3.47;;;;;21.30;95872.00;;;;5043712;28;20213;-73
2023/07/25 01:52:42;;;;;;;10.73;4.47;;;;;21.30;95869.00;;;;5044363;28;20235;-73
2023/07/25 01:55:31;;;;;;;3.23;2.23;;;;;21.30;95868.00;;;;5044999;28;20205;-73
2023/07/25 01:58:22;;;;;;;5.73;3.23;;;;;21.20;95872.00;;;;5037668;28;20604;-74
2023/07/25 02:01:11;;;;;;;5.53;2.57;;;;;21.20;95859.00;;;;5042087;28;20196;-72
2023/07/25 02:04:00;;;;;;;5.43;2.80;;;;;21.30;95855.00;;;;5040337;28;20828;-73
2023/07/25 02:06:49;;;;;;;7.37;3.80;;;;;21.30;95856.00;;;;5047427;28;20197;-73
2023/07/25 02:09:38;;;;;;;2.97;1.97;;;;;20.80;95852.00;;;;5045980;28;20216;-73
2023/07/25 02:12:29;;;;;;;7.77;3.00;;;;;20.40;95873.00;;;;5045989;28;20212;-72
2023/07/25 02:15:20;;;;;;;6.50;2.97;;;;;20.40;95874.00;;;;5047238;28;20200;-73
2023/07/25 02:18:09;;;;;;;5.27;3.07;;;;;20.10;95871.00;;;;5028798;28;20205;-74
2023/07/25 02:20:58;;;;;;;14.17;3.20;;;;;20.40;95871.00;;;;5047764;28;20197;-73
2023/07/25 02:23:47;;;;;;;4.53;2.67;;;;;20.30;95859.00;;;;5047196;28;20207;-73
2023/07/25 02:26:38;;;;;;;6.33;3.03;;;;;20.30;95855.00;;;;5048968;28;20596;-73
2023/07/25 02:29:27;;;;;;;5.70;2.63;;;;;19.90;95861.00;;;;5047938;28;20223;-72
2023/07/25 02:32:17;;;;;;;4.73;3.20;;;;;19.80;95863.00;;;;5048771;28;20232;-72
2023/07/25 02:35:07;;;;;;;6.83;3.37;;;;;19.70;95880.00;;;;5048846;28;20702;-73
2023/07/25 02:37:56;;;;;;;9.23;3.00;;;;;19.20;95859.00;;;;5047569;28;20208;-73
2023/07/25 02:40:45;;;;;;;5.23;2.97;;;;;19.00;95858.00;;;;5056558;28;20572;-72
2023/07/25 02:43:34;;;;;;;6.07;2.93;;;;;19.40;95857.00;;;;5056012;28;20239;-73
2023/07/25 02:46:23;;;;;;;5.20;3.60;;;;;19.60;95846.00;;;;5048261;28;20574;-74
2023/07/25 02:49:13;;;;;;;9.57;2.93;;;;;19.50;95838.00;;;;5048189;28;20221;-73
2023/07/25 02:52:02;;;;;;;4.67;3.03;;;;;19.10;95833.00;;;;5049569;28;20221;-72
2023/07/25 02:54:51;;;;;;;7.03;3.20;;;;;19.40;95830.00;;;;5050058;28;20212;-71
2023/07/25 02:57:40;;;;;;;6.97;2.90;;;;;19.50;95829.00;;;;5050399;28;20204;-72
2023/07/25 03:00:30;;;;;;;6.00;3.20;;;;;19.50;95834.00;;;;5047150;28;20197;-71
2023/07/25 03:03:19;;;;;;;11.77;3.27;;;;;19.40;95820.00;;;;5049693;28;20718;-70
2023/07/25 03:06:10;;;;;;;4.27;2.60;;;;;19.70;95819.00;;;;5051180;28;20208;-71
2023/07/25 03:08:59;;;;;;;10.60;3.00;;;;;20.00;95812.00;;;;5044099;28;20571;-70
2023/07/25 03:11:48;;;;;;;5.50;3.43;;;;;19.90;95805.00;;;;5050068;28;20595;-70
2023/07/25 03:14:37;;;;;;;5.40;3.77;;;;;19.80;95801.00;;;;5049107;28;20197;-69
2023/07/25 03:17:26;;;;;;;5.77;3.00;;;;;19.90;95797.00;;;;5050090;28;20606;-71
2023/07/25 03:20:15;;;;;;;6.23;3.33;;;;;19.90;95791.00;;;;5045307;28;20560;-70
2023/07/25 03:23:05;;;;;;;5.33;3.00;;;;;19.90;95784.00;;;;5044091;28;20220;-70
2023/07/25 03:25:54;;;;;;;8.60;2.97;;;;;19.70;95777.00;;;;5050260;28;20201;-70
2023/07/25 03:28:43;;;;;;;7.17;2.90;;;;;19.50;95775.00;;;;5048038;28;20603;-70
2023/07/25 03:31:32;;;;;;;4.83;3.03;;;;;19.40;95764.00;;;;5047815;28;20205;-70
2023/07/25 03:34:21;;;;;;;6.50;3.50;;;;;19.20;95762.00;;;;5045402;28;20231;-71
2023/07/25 03:37:10;;;;;;;7.50;3.20;;;;;19.00;95773.00;;;;5049330;28;20205;-72
2023/07/25 03:40:01;;;;;;;4.77;3.27;;;;;19.50;95768.00;;;;5049094;28;20212;-72
2023/07/25 03:42:50;;;;;;;3.43;3.00;;;;;18.90;95767.00;;;;5040659;28;20598;-72
2023/07/25 03:45:39;;;;;;;4.80;2.43;;;;;18.90;95778.00;;;;5048828;28;20205;-72
2023/07/25 03:48:28;;;;;;;3.80;3.17;;;;;19.20;95781.00;;;;5047791;28;20567;-70
2023/07/25 03:51:17;;;;;;;10.37;5.30;;;;;19.50;95773.00;;;;5048437;28;20217;-70
2023/07/25 03:54:06;;;;;;;6.30;2.67;;;;;19.70;95781.00;;;;5045320;28;20201;-70
2023/07/25 03:56:56;;;;;;;4.23;2.83;;;;;19.90;95787.00;;;;5047688;28;20207;-70
2023/07/25 03:59:45;;;;;;;6.97;3.20;;;;;19.90;95789.00;;;;5047494;28;20208;-71
2023/07/25 04:02:34;;;;;;;5.23;3.00;;;;;19.70;95789.00;;;;5043094;28;20240;-71
2023/07/25 04:05:23;;;;;;;10.13;3.00;;;;;19.60;95792.00;;;;5045850;28;20205;-70
2023/07/25 04:08:12;;;;;;;3.73;2.57;;;;;19.30;95799.00;;;;5042352;28;20201;-69
2023/07/25 04:11:01;;;;;;;4.23;2.97;;;;;19.00;95816.00;;;;5044382;28;20227;-72
2023/07/25 04:13:52;;;;;;;5.13;2.40;;;;;19.30;95813.00;;;;5047061;28;20924;-72
2023/07/25 04:16:41;;;;;;;5.47;2.37;;;;;19.90;95823.00;;;;5047622;28;20201;-73
2023/07/25 04:19:30;;;;;;;8.70;3.23;;;;;20.20;95813.00;;;;5048424;28;20207;-73
2023/07/25 04:22:19;;;;;;;9.43;2.77;;;;;20.30;95813.00;;;;5048661;28;20220;-73
2023/07/25 04:25:09;;;;;;;4.07;2.93;;;;;20.40;95809.00;;;;5042761;28;20204;-73
2023/07/25 04:27:58;;;;;;;4.23;3.13;;;;;20.30;95813.00;;;;5044985;28;20201;-72
2023/07/25 04:30:48;;;;;;;4.10;2.60;;;;;20.20;95801.00;;;;5047600;28;20229;-73
2023/07/25 04:33:37;;;;;;;3.17;2.60;;;;;20.30;95791.00;;;;5047666;28;20231;-73
2023/07/25 04:36:29;;;;;;;4.97;2.60;;;;;20.70;95790.00;;;;5047834;28;20205;-72
2023/07/25 04:39:18;;;;;;;4.37;2.50;;;;;20.60;95787.00;;;;5038147;28;20196;-73
2023/07/25 04:42:07;;;;;;;4.50;2.93;;;;;20.50;95804.00;;;;5057572;23;20238;-88
2023/07/25 04:44:56;;;;;;;4.87;2.73;;;;;20.40;95793.00;;;;5060931;28;20219;-87
2023/07/25 04:47:48;;;;;;;6.57;2.70;;;;;20.60;95783.00;;;;5059683;28;20222;-88
2023/07/25 04:50:37;;;;;;;4.37;2.80;;;;;20.80;95800.00;;;;5066835;28;20230;-87
2023/07/25 04:53:26;;;;;;;8.50;3.00;;;;;21.10;95791.00;;;;5066829;28;20200;-87
2023/07/25 04:56:15;;;;;;;7.83;3.43;;;;;20.60;95786.00;;;;5062210;28;20220;-87
2023/07/25 04:59:04;;;;;;;7.30;4.40;;;;;20.70;95797.00;;;;5061479;28;20686;-87
2023/07/25 05:01:53;;;;;;;6.97;2.90;;;;;20.70;95800.00;;;;5063569;28;20188;-86
2023/07/25 05:04:44;;;;;;;7.37;2.67;;;;;20.60;95778.00;;;;5066470;28;20231;-87
2023/07/25 05:07:33;;;;;;;7.27;2.80;;;;;20.80;95758.00;;;;5065730;28;20210;-88
2023/07/25 05:10:22;;;;;;;4.43;2.80;;;;;20.80;95747.00;;;;5065895;28;20679;-87
2023/07/25 05:13:11;;;;;;;4.57;2.90;;;;;20.60;95760.00;;;;5056529;28;20207;-87
2023/07/25 05:16:00;;;;;;;4.03;2.33;;;;;20.80;95745.00;;;;5062957;28;20721;-88
2023/07/25 05:18:49;;;;;;;3.40;3.10;;;;;20.90;95707.00;;;;5067563;28;20199;-87
2023/07/25 05:21:40;;;;;;;6.07;2.97;;;;;20.90;95692.00;;;;5065015;28;20838;-88
2023/07/25 05:24:29;;;;;;;4.10;2.90;;;;;21.00;95686.00;;;;5065536;28;20212;-88
2023/07/25 05:27:18;;;;;;;4.57;2.97;;;;;21.10;95678.00;;;;5067310;28;20200;-87
2023/07/25 05:30:08;;;;;;;3.37;2.67;;;;;20.50;95657.00;;;;5060858;28;20301;-88
2023/07/25 05:32:57;;;;;;;5.43;2.90;;;;;20.70;95657.00;;;;5063111;28;20200;-88
2023/07/25 05:35:46;;;;;;;5.60;2.73;;;;;20.90;95657.00;;;;5062885;28;20234;-88
2023/07/25 05:38:37;;;;;;;6.27;3.60;;;;;20.90;95650.00;;;;5060813;28;20216;-88
2023/07/25 05:41:26;;;;;;;4.20;3.10;;;;;20.50;95663.00;;;;5064600;28;20188;-89
2023/07/25 05:44:15;;;;;;;6.37;3.43;;;;;20.30;95664.00;;;;5062052;28;20212;-87
2023/07/25 05:47:05;;;;;;;5.43;3.23;;;;;19.60;95693.00;;;;5065936;28;20200;-88
2023/07/25 05:49:54;;;;;;;4.40;2.83;;;;;19.60;95701.00;;;;5059575;28;20205;-88
2023/07/25 05:52:43;;;;;;;3.90;3.00;;;;;19.70;95709.00;;;;5065587;28;20215;-90
2023/07/25 05:55:34;;;;;;;6.67;2.83;;;;;20.00;95727.00;;;;5066601;28;20243;-89
2023/07/25 05:58:23;;;;;;;4.80;2.70;;;;;20.60;95724.00;;;;5068386;28;20198;-88
2023/07/25 06:01:13;;;;;;;4.40;2.50;;;;;20.90;95700.00;;;;5066732;28;20206;-90
2023/07/25 06:04:02;;;;;;;3.53;2.10;;;;;21.00;95717.00;;;;5064519;28;20199;-89
2023/07/25 06:06:51;;;;;;;4.63;2.83;;;;;20.50;95700.00;;;;5066779;28;20223;-91
2023/07/25 06:09:41;;;;;;;6.33;3.20;;;;;20.40;95722.00;;;;5066392;28;20579;-90
2023/07/25 06:12:31;;;;;;;4.00;3.20;;;;;21.10;95751.00;;;;5062405;28;20219;-89
2023/07/25 06:15:20;;;;;;;6.57;4.00;;;;;20.80;95766.00;;;;5067044;28;20226;-88
2023/07/25 06:18:10;;;;;;;5.77;3.90;;;;;20.80;95794.00;;;;5059476;28;20220;-88
2023/07/25 06:20:59;;;;;;;4.90;2.90;;;;;20.10;95834.00;;;;5066392;28;20667;-87
2023/07/25 06:23:49;;;;;;;5.63;3.80;;;;;20.10;95857.00;;;;5065549;28;20216;-88
2023/07/25 06:26:38;;;;;;;6.03;3.83;;;;;20.10;95875.00;;;;5073287;28;20231;-87
2023/07/25 06:29:28;;;;;;;11.10;4.97;;;;;20.20;95873.00;;;;5071572;28;20230;-88
2023/07/25 06:32:17;;;;;;;7.20;4.50;;;;;20.10;95866.00;;;;5068188;28;20698;-87
2023/07/25 06:35:07;;;;;;;10.63;5.03;;;;;20.70;95833.00;;;;5059849;28;20235;-87
2023/07/25 06:37:56;;;;;;;10.93;4.60;;;;;20.90;95834.00;;;;5058125;28;20750;-87
2023/07/25 06:40:46;;;;;;;6.40;4.60;;;;;21.00;95837.00;;;;5070454;28;20239;-86
2023/07/25 06:43:35;;;;;;;9.83;5.20;;;;;21.00;95835.00;;;;5068762;28;20220;-87
2023/07/25 06:46:25;;;;;;;8.60;5.33;;;;;20.40;95858.00;;;;5067493;28;20220;-87
2023/07/25 06:49:15;;;;;;;17.70;5.70;;;;;20.20;95893.00;;;;5063328;28;20456;-86
2023/07/25 06:52:04;;;;;;;8.73;4.90;;;;;20.60;95909.00;;;;5066633;28;20925;-86
2023/07/25 06:54:54;;;;;;;7.57;4.70;;;;;20.60;95901.00;;;;5069288;28;20226;-86
2023/07/25 06:57:43;;;;;;;9.07;4.27;;;;;20.70;95878.00;;;;5064667;28;20296;-86
2023/07/25 07:00:37;;;;;;;11.93;5.17;;;;;20.80;95851.00;;;;5068428;28;20898;-86
2023/07/25 07:03:27;;;;;;;9.90;5.03;;;;;20.70;95843.00;;;;5063106;28;20201;-86
2023/07/25 07:06:16;;;;;;;8.30;5.13;;;;;20.60;95838.00;;;;5062442;28;20224;-87
2023/07/25 07:09:06;;;;;;;5.67;3.70;;;;;20.30;95858.00;;;;5064558;28;20209;-87
2023/07/25 07:11:55;;;;;;;9.97;4.40;;;;;20.40;95883.00;;;;5062566;28;20226;-87
2023/07/25 07:14:44;;;;;;;8.73;4.13;;;;;20.30;95899.00;;;;5063039;28;20255;-86
2023/07/25 07:17:33;;;;;;;7.90;5.27;;;;;20.00;95889.00;;;;5060529;28;20200;-87
2023/07/25 07:20:23;;;;;;;10.70;4.83;;;;;19.50;95909.00;;;;5064510;28;20680;-89
2023/07/25 07:23:12;;;;;;;8.97;4.47;;;;;19.50;95908.00;;;;5065715;28;20722;-85
2023/07/25 07:26:02;;;;;;;10.53;4.57;;;;;19.90;95914.00;;;;5064880;28;20684;-86
2023/07/25 07:28:51;;;;;;;13.10;4.87;;;;;20.30;95920.00;;;;5056287;28;20196;-86
2023/07/25 07:31:40;;;;;;;8.50;4.47;;;;;20.00;95964.00;;;;5060537;28;20223;-87
2023/07/25 07:34:29;;;;;;;8.60;4.97;;;;;19.80;95992.00;;;;5059575;28;20224;-88
2023/07/25 07:37:19;;;;;;;8.50;5.97;;;;;19.10;96020.00;;;;5060099;28;20196;-89
2023/07/25 07:40:09;;;;;;;12.00;6.93;;;;;19.90;95993.00;;;;5059912;28;20199;-88
2023/07/25 07:43:01;;;;;;;11.90;6.70;;;;;20.20;95894.00;;;;5062603;28;20314;-88
2023/07/25 07:45:50;;;;;;;6.93;5.03;;;;;20.20;95776.00;;;;5060449;28;20224;-88
2023/07/25 07:48:40;;;;;;;7.37;4.90;;;;;20.10;95704.00;;;;5053389;28;20207;-90
2023/07/25 07:51:30;;;;;;;6.23;3.97;;;;;20.10;95628.00;;;;5057621;28;20219;-90
2023/07/25 07:54:21;;;;;;;9.50;4.53;;;;;20.10;95549.00;;;;5061372;28;20203;-89
2023/07/25 07:57:10;;;;;;;4.90;3.80;;;;;20.10;95477.00;;;;5064376;28;20196;-88
2023/07/25 07:59:59;;;;;;;7.13;3.17;;;;;19.90;95512.00;;;;5060307;28;20207;-88
2023/07/25 08:02:48;;;;;;;6.77;3.00;;;;;19.30;95575.00;;;;5067722;28;20580;-86
2023/07/25 08:05:39;;;;;;;5.25;3.10;;;;;18.40;95685.00;;;;5065768;28;20238;-89
2023/07/25 08:08:28;;;;;;;5.93;3.27;;;;;19.10;95756.00;;;;5063101;28;20237;-90
2023/07/25 08:11:19;;;;;;;6.43;3.73;;;;;19.40;95802.00;;;;5068201;28;20204;-90
2023/07/25 08:14:08;;;;;;;4.97;3.40;;;;;20.00;95810.00;;;;5058385;28;20215;-89
2023/07/25 08:16:57;;;;;;;3.53;2.83;;;;;20.30;95813.00;;;;5058742;28;20204;-89
2023/07/25 08:19:47;;;;;;;5.07;3.07;;;;;20.50;95799.00;;;;5065051;28;20208;-88
2023/07/25 08:22:36;;;;;;;3.37;3.07;;;;;20.70;95781.00;;;;5064849;28;20214;-89
2023/07/25 08:25:25;;;;;;;3.53;3.03;;;;;20.80;95770.00;;;;5052008;28;20582;-88
2023/07/25 08:28:17;;;;;;;2.50;2.10;;;;;21.00;95761.00;;;;5062727;28;20207;-89
2023/07/25 08:31:06;;;;;;;4.97;2.67;;;;;20.50;95760.00;;;;5061256;28;20400;-89
2023/07/25 08:33:57;;;;;;;5.70;3.10;;;;;20.30;95765.00;;;;5060141;28;20228;-88
2023/07/25 08:36:46;;;;;;;4.60;3.53;;;;;20.40;95786.00;;;;5059724;28;20891;-88
2023/07/25 08:39:36;;;;;;;5.60;2.67;;;;;20.60;95791.00;;;;5061178;28;20257;-89
2023/07/25 08:42:26;;;;;;;4.47;3.07;;;;;20.20;95798.00;;;;5060365;28;20204;-88
2023/07/25 08:45:17;;;;;;;5.30;3.43;;;;;20.40;95806.00;;;;5065048;28;20228;-88
2023/07/25 08:48:08;;;;;;;4.77;2.90;;;;;20.40;95808.00;;;;5061664;28;20207;-88
2023/07/25 08:50:58;;;;;;;3.93;3.20;;;;;21.00;95805.00;;;;5060263;28;20204;-88
2023/07/25 08:53:55;;;;;;;6.07;3.30;;;;;21.30;95804.00;;;;5062482;28;20231;-88
2023/07/25 08:56:44;;;;;;;3.97;2.97;;;;;21.90;95795.00;;;;5054844;28;20676;-89
2023/07/25 08:59:33;;;;;;;5.10;3.83;;;;;22.40;95796.00;;;;5059718;28;20582;-88
2023/07/25 09:02:25;;;;;;;5.63;3.03;;;;;22.70;95788.00;;;;5054485;28;20207;-87
2023/07/25 09:05:17;;;;;;;3.97;2.90;;;;;23.00;95787.00;;;;5063125;28;20231;-88
2023/07/25 09:08:06;;;;;;;3.60;2.77;;;;;23.30;95787.00;;;;5059536;28;20199;-89
2023/07/25 09:10:56;;;;;;;3.57;2.43;;;;;23.30;95798.00;;;;5065580;28;20581;-89
2023/07/25 09:13:46;;;;;;;4.30;2.90;;;;;23.20;95799.00;;;;5057997;28;20219;-90
2023/07/25 09:17:19;;;;;;;4.83;2.73;;;;;23.20;95809.00;;;;5067827;28;20205;-89
2023/07/25 09:20:12;;;;;;;3.37;3.07;;;;;23.10;95807.00;;;;5065205;28;20200;-89
2023/07/25 09:23:02;;;;;;;4.87;3.43;;;;;23.00;95813.00;;;;5060848;28;20675;-88
2023/07/25 09:25:52;;;;;;;3.77;2.40;;;;;22.80;95805.00;;;;5061190;28;20259;-90
2023/07/25 09:28:49;;;;;;;3.60;3.30;;;;;22.70;95777.00;;;;5060283;28;20211;-91
2023/07/25 09:31:44;;;;;;;3.70;3.20;;;;;22.80;95761.00;;;;5061564;28;20215;-91
2023/07/25 09:34:33;;;;;;;5.93;3.00;;;;;22.90;95770.00;;;;5060164;28;20224;-90
2023/07/25 09:37:25;;;;;;;4.70;3.07;;;;;22.60;95777.00;;;;5066726;28;20199;-86
2023/07/25 09:40:14;;;;;;;3.23;2.93;;;;;22.60;95798.00;;;;5055950;28;20246;-89
2023/07/25 09:43:03;;;;;;;3.53;3.10;;;;;22.50;95822.00;;;;5062749;28;20215;-89
2023/07/25 09:45:53;;;;;;;3.93;3.33;;;;;22.10;95835.00;;;;5061913;28;20224;-89
2023/07/25 09:48:44;;;;;;;5.57;3.30;;;;;22.30;95850.00;;;;5058038;28;20289;-89
2023/07/25 09:51:33;;;;;;;4.30;3.37;;;;;22.50;95875.00;;;;5066969;28;20200;-89
2023/07/25 09:54:24;;;;;;;6.57;3.97;;;;;22.50;95864.00;;;;5049682;28;20236;-89
2023/07/25 09:57:13;;;;;;;6.67;3.33;;;;;22.50;95857.00;;;;5068666;28;20366;-89
2023/07/25 10:00:05;;;;;;;6.93;3.27;;;;;22.50;95864.00;;;;5059501;28;20208;-88
2023/07/25 10:02:54;;;;;;;3.77;3.37;;;;;22.40;95856.00;;;;5056078;28;20599;-90
2023/07/25 10:05:44;;;;;;;7.67;4.00;;;;;22.20;95845.00;;;;5067843;28;20643;-90
2023/07/25 10:08:33;;;;;;;3.90;3.50;;;;;22.10;95840.00;;;;5065053;28;20701;-90
2023/07/25 10:11:24;;;;;;;5.53;4.03;;;;;22.10;95842.00;;;;5063930;28;20223;-91
2023/07/25 10:14:13;;;;;;;5.80;3.80;;;;;21.80;95831.00;;;;5057469;28;20231;-89
2023/07/25 10:17:03;;;;;;;3.80;3.40;;;;;21.80;95808.00;;;;5062401;28;20238;-88
2023/07/25 10:19:53;;;;;;;7.00;4.03;;;;;21.70;95819.00;;;;5066483;28;20200;-88
2023/07/25 10:22:43;;;;;;;6.73;3.77;;;;;21.70;95794.00;;;;5063243;28;20200;-88
2023/07/25 10:25:34;;;;;;;8.10;3.80;;;;;21.60;95808.00;;;;5050909;28;20294;-89
2023/07/25 10:28:29;;;;;;;5.10;4.53;;;;;21.50;95814.00;;;;5056589;28;20872;-90
2023/07/25 10:31:36;;;;;;;5.97;3.83;;;;;21.70;95805.00;;;;5060165;28;20211;-89
2023/07/25 10:34:47;;;;;;;4.83;3.67;;;;;21.90;95811.00;;;;5057005;28;20219;-90
2023/07/25 10:37:45;;;;;;;4.87;4.00;;;;;21.90;95825.00;;;;5050725;28;20201;-90
2023/07/25 10:40:55;;;;;;;5.50;4.17;;;;;22.00;95805.00;;;;5066657;28;20215;-89
2023/07/25 10:44:04;;;;;;;6.77;3.97;;;;;22.30;95784.00;;;;5064917;28;20235;-88
2023/07/25 10:46:53;;;;;;;6.23;4.30;;;;;22.50;95791.00;;;;5063530;28;20266;-90
2023/07/25 10:49:57;;;;;;;9.20;4.10;;;;;22.40;95798.00;;;;5067595;28;20196;-90
2023/07/25 10:52:48;;;;;;;6.97;4.30;;;;;22.20;95794.00;;;;5062541;28;20211;-90
2023/07/25 10:55:37;;;;;;;8.97;4.57;;;;;22.40;95790.00;;;;5062813;28;20598;-90
2023/07/25 10:58:27;;;;;;;6.93;4.03;;;;;22.40;95788.00;;;;5062298;28;20205;-88
2023/07/25 11:01:46;;;;;;;6.63;4.70;;;;;22.20;95781.00;;;;5064156;28;20326;-89
2023/07/25 11:04:36;;;;;;;7.03;4.90;;;;;22.30;95779.00;;;;5066787;28;20250;-90
2023/07/25 11:07:25;;;;;;;8.30;4.10;;;;;22.50;95760.00;;;;5061482;28;20212;-87
2023/07/25 11:10:20;;;;;;;5.47;3.73;;;;;22.40;95740.00;;;;5052718;28;20197;-89
2023/07/25 11:13:09;;;;;;;7.37;4.30;;;;;22.60;95726.00;;;;5063964;28;20200;-88
2023/07/25 11:16:01;;;;;;;8.57;4.50;;;;;22.80;95717.00;;;;5066854;28;20232;-89
2023/07/25 11:18:53;;;;;;;5.10;4.07;;;;;23.10;95723.00;;;;5069967;28;20204;-89
2023/07/25 11:21:46;;;;;;;7.73;4.23;;;;;23.40;95732.00;;;;5060688;28;20227;-89
2023/07/25 11:24:42;;;;;;;7.97;4.47;;;;;23.40;95730.00;;;;5057859;28;20226;-88
2023/07/25 11:27:31;;;;;;;8.43;3.93;;;;;23.30;95729.00;;;;5066313;28;21502;-87
2023/07/25 11:30:21;;;;;;;8.60;3.27;;;;;23.20;95721.00;;;;5062812;28;20200;-90
2023/07/25 11:33:10;;;;;;;6.27;2.70;;;;;23.20;95718.00;;;;5061252;28;20200;-90
2023/07/25 11:36:01;;;;;;;4.37;2.70;;;;;23.20;95718.00;;;;5067748;28;20230;-89
2023/07/25 11:38:50;;;;;;;3.20;2.53;;;;;23.10;95715.00;;;;5064987;28;20204;-89
2023/07/25 11:41:40;;;;;;;7.07;2.40;;;;;23.00;95720.00;;;;5065777;28;20204;-89
2023/07/25 11:44:31;;;;;;;5.77;2.50;;;;;23.00;95721.00;;;;5057636;28;20220;-89
2023/07/25 11:47:22;;;;;;;2.97;2.60;;;;;23.00;95732.00;;;;5065746;28;20204;-89
2023/07/25 11:50:12;;;;;;;2.73;2.10;;;;;23.00;95736.00;;;;5056238;28;20200;-88
2023/07/25 11:53:11;;;;;;;2.20;2.00;;;;;22.80;95749.00;;;;5071515;28;20200;-89
2023/07/25 11:56:00;;;;;;;2.53;1.90;;;;;22.50;95758.00;;;;5065397;28;20224;-90
2023/07/25 11:58:50;;;;;;;2.93;1.77;;;;;22.40;95770.00;;;;5067732;28;20207;-89
2023/07/25 12:01:39;;;;;;;1.93;1.60;;;;;22.30;95788.00;;;;5064088;28;20196;-89
2023/07/25 12:04:29;;;;;;;2.97;1.40;;;;;22.20;95792.00;;;;5066553;28;20609;-89
2023/07/25 12:07:18;;;;;;;2.33;1.80;;;;;21.90;95804.00;;;;5060905;28;20200;-90
2023/07/25 12:10:11;;;;;;;2.10;1.77;;;;;21.90;95801.00;;;;5059905;28;20200;-89
2023/07/25 12:13:02;;;;;;;3.20;1.90;;;;;21.90;95798.00;;;;5062549;28;20207;-88
2023/07/25 12:15:51;;;;;;;2.43;2.10;;;;;21.80;95811.00;;;;5058664;28;20227;-88
2023/07/25 12:18:41;;;;;;;2.23;1.90;;;;;21.80;95807.00;;;;5060506;28;20254;-90
2023/07/25 12:21:37;;;;;;;4.07;1.77;;;;;21.70;95791.00;;;;5061985;28;20204;-91
2023/07/25 12:24:40;;;;;;;4.57;1.70;;;;;21.70;95766.00;;;;5067066;28;20230;-90
2023/07/25 12:27:31;;;;;;;4.07;1.80;;;;;21.50;95722.00;;;;5063995;28;20672;-90
2023/07/25 12:30:21;;;;;;;4.40;1.77;;;;;21.20;95727.00;;;;5070489;28;20211;-90
2023/07/25 12:33:10;;;;;;;5.30;3.50;;;;;21.50;95738.00;;;;5068387;28;20404;-90
2023/07/25 12:36:00;;;;;;;4.50;2.10;;;;;21.50;95734.00;;;;5058705;28;20299;-90
2023/07/25 12:38:49;;;;;;;4.17;2.10;;;;;21.30;95729.00;;;;5058259;28;20858;-91
2023/07/25 12:41:39;;;;;;;3.33;2.37;;;;;21.40;95732.00;;;;5057442;28;20587;-89
2023/07/25 12:44:30;;;;;;;5.23;2.30;;;;;21.40;95711.00;;;;5057161;28;20744;-91
2023/07/25 12:47:19;;;;;;;3.10;2.67;;;;;21.60;95692.00;;;;5065104;28;20211;-90
2023/07/25 12:50:09;;;;;;;2.97;2.23;;;;;21.80;95699.00;;;;5057447;28;20208;-91
2023/07/25 12:52:58;;;;;;;2.77;1.60;;;;;22.10;95670.00;;;;5061761;28;20264;-89
2023/07/25 12:55:48;;;;;;;3.30;1.93;;;;;22.20;95656.00;;;;5061672;28;20234;-90
2023/07/25 12:58:37;;;;;;;3.47;2.03;;;;;22.60;95640.00;;;;5060568;28;20208;-90
2023/07/25 13:04:48;;;;;;;2.43;2.10;;;;;24.00;95609.00;;;;5057473;28;20223;-89
2023/07/25 13:07:40;;;;;;;2.33;2.13;;;;;24.80;95593.00;;;;5054799;28;20218;-90
2023/07/25 13:10:33;;;;;;;2.20;2.00;;;;;26.20;95583.00;;;;5067841;28;20199;-91
2023/07/25 13:13:22;;;;;;;2.53;1.80;;;;;27.40;95639.00;;;;5065376;28;20211;-92
2023/07/25 13:16:20;;;;;;;3.30;2.20;;;;;26.30;95659.00;;;;5071590;28;20231;-92
2023/07/25 13:19:12;;;;;;;2.30;1.77;;;;;24.00;95661.00;;;;5068037;28;20203;-89
2023/07/25 13:22:01;;;;;;;3.33;2.17;;;;;23.50;95667.00;;;;5052416;28;20209;-89
2023/07/25 13:24:55;;;;;;;4.27;2.53;;;;;23.10;95665.00;;;;5056298;28;20223;-90
2023/07/25 13:27:44;;;;;;;3.60;2.87;;;;;22.90;95674.00;;;;5063922;28;20208;-89
2023/07/25 13:30:34;;;;;;;3.20;2.57;;;;;23.10;95671.00;;;;5060026;28;20208;-89
2023/07/25 13:33:23;;;;;;;7.23;3.20;;;;;23.30;95664.00;;;;5067652;28;20222;-90
2023/07/25 13:36:14;;;;;;;2.63;2.17;;;;;23.40;95659.00;;;;5067679;28;20232;-89
2023/07/25 13:39:03;;;;;;;2.73;2.37;;;;;23.70;95671.00;;;;5069816;28;20579;-90
2023/07/25 13:41:53;;;;;;;4.60;2.37;;;;;23.80;95675.00;;;;5065668;28;20203;-90
2023/07/25 13:44:42;;;;;;;6.53;2.60;;;;;24.20;95656.00;;;;5064749;28;20224;-88
2023/07/25 13:47:31;;;;;;;3.80;1.93;;;;;24.60;95649.00;;;;5067331;28;20203;-90
2023/07/25 13:50:20;;;;;;;1.80;1.47;;;;;25.20;95653.00;;;;5061533;28;20211;-90
2023/07/25 13:53:11;;;;;;;4.63;1.57;;;;;25.70;95660.00;;;;5062898;28;20204;-89
2023/07/25 13:56:00;;;;;;;2.77;1.37;;;;;26.30;95666.00;;;;5058225;28;20227;-90
2023/07/25 13:58:50;;;;;;;2.07;0.87;;;;;26.50;95676.00;;;;5062387;28;20200;-89
2023/07/25 14:01:39;;;;;;;1.83;1.10;;;;;26.00;95683.00;;;;5054965;28;20204;-89
2023/07/25 14:04:29;;;;;;;2.03;1.20;;;;;26.30;95680.00;;;;5066433;28;20224;-94
2023/07/25 14:07:19;;;;;;;6.13;2.03;;;;;26.40;95665.00;;;;5060617;28;21051;-88
2023/07/25 14:10:10;;;;;;;3.17;1.47;;;;;27.00;95666.00;;;;5066081;28;20204;-89
2023/07/25 14:12:59;;;;;;;4.83;1.53;;;;;27.50;95654.00;;;;5060099;28;20721;-89
2023/07/25 14:15:49;;;;;;;2.43;1.33;;;;;27.30;95684.00;;;;5059541;28;20234;-89